sensor_id;sensor_type;location;lat;lon;timestamp;P1;durP1;ratioP1;P2;durP2;ratioP2
52740;SDS011;38634;52.138;9.912;2023-06-10T00:01:56;16.13;;;3.15;;
52740;SDS011;38634;52.138;9.912;2023-06-10T00:04:43;17.65;;;3.40;;
52740;SDS011;38634;52.138;9.912;2023-06-10T00:07:28;18.27;;;3.35;;
52740;SDS011;38634;52.138;9.912;2023-06-10T00:10:13;15.82;;;3.15;;
52740;SDS011;38634;52.138;9.912;2023-06-10T08:45:42;19.75;;;3.75;;
52740;SDS011;38634;52.138;9.912;2023-06-10T08:48:30;16.98;;;3.78;;
52740;SDS011;38634;52.138;9.912;2023-06-10T08:51:15;16.20;;;3.33;;
52740;SDS011;38634;52.138;9.912;2023-06-10T08:54:03;14.95;;;3.33;;
52740;SDS011;38634;52.138;9.912;2023-06-10T08:56:54;21.65;;;4.85;;
52740;SDS011;38634;52.138;9.912;2023-06-10T08:59:39;16.42;;;3.03;;
52740;SDS011;38634;52.138;9.912;2023-06-10T09:02:25;18.85;;;3.72;;
52740;SDS011;38634;52.138;9.912;2023-06-10T09:05:14;13.98;;;3.42;;
52740;SDS011;38634;52.138;9.912;2023-06-10T09:07:58;19.02;;;3.30;;
52740;SDS011;38634;52.138;9.912;2023-06-10T09:10:46;15.63;;;2.80;;
52740;SDS011;38634;52.138;9.912;2023-06-10T09:13:31;18.33;;;3.45;;
52740;SDS011;38634;52.138;9.912;2023-06-10T09:16:16;19.63;;;3.60;;
52740;SDS011;38634;52.138;9.912;2023-06-10T09:19:01;17.50;;;3.45;;
52740;SDS011;38634;52.138;9.912;2023-06-10T09:21:51;12.10;;;2.75;;
52740;SDS011;38634;52.138;9.912;2023-06-10T09:24:36;15.20;;;2.92;;
52740;SDS011;38634;52.138;9.912;2023-06-10T09:27:21;13.60;;;2.55;;
52740;SDS011;38634;52.138;9.912;2023-06-10T09:30:05;14.30;;;2.70;;
52740;SDS011;38634;52.138;9.912;2023-06-10T09:32:54;13.32;;;3.03;;
52740;SDS011;38634;52.138;9.912;2023-06-10T09:35:46;9.40;;;2.50;;
52740;SDS011;38634;52.138;9.912;2023-06-10T09:38:33;13.73;;;3.17;;
52740;SDS011;38634;52.138;9.912;2023-06-10T09:41:19;13.60;;;3.05;;
52740;SDS011;38634;52.138;9.912;2023-06-10T09:44:05;15.48;;;3.28;;
52740;SDS011;38634;52.138;9.912;2023-06-10T09:47:05;17.42;;;3.42;;
52740;SDS011;38634;52.138;9.912;2023-06-10T09:49:49;14.30;;;2.95;;
52740;SDS011;38634;52.138;9.912;2023-06-10T09:52:36;14.50;;;2.67;;
52740;SDS011;38634;52.138;9.912;2023-06-10T09:55:28;15.82;;;3.05;;
52740;SDS011;38634;52.138;9.912;2023-06-10T09:58:13;16.13;;;2.88;;
52740;SDS011;38634;52.138;9.912;2023-06-10T10:00:59;18.50;;;3.28;;
52740;SDS011;38634;52.138;9.912;2023-06-10T10:03:47;16.52;;;3.10;;
52740;SDS011;38634;52.138;9.912;2023-06-10T10:06:35;21.08;;;4.80;;
52740;SDS011;38634;52.138;9.912;2023-06-10T10:09:21;18.35;;;3.45;;
52740;SDS011;38634;52.138;9.912;2023-06-10T10:12:09;15.65;;;2.80;;
52740;SDS011;38634;52.138;9.912;2023-06-10T10:14:58;17.75;;;3.70;;
52740;SDS011;38634;52.138;9.912;2023-06-10T10:17:52;20.00;;;3.65;;
52740;SDS011;38634;52.138;9.912;2023-06-10T10:20:46;17.70;;;3.63;;
52740;SDS011;38634;52.138;9.912;2023-06-10T10:24:07;17.30;;;3.40;;
52740;SDS011;38634;52.138;9.912;2023-06-10T10:27:01;17.23;;;3.63;;
52740;SDS011;38634;52.138;9.912;2023-06-10T10:29:51;18.05;;;3.10;;
52740;SDS011;38634;52.138;9.912;2023-06-10T10:32:42;19.80;;;3.70;;
52740;SDS011;38634;52.138;9.912;2023-06-10T10:35:49;16.13;;;3.00;;
52740;SDS011;38634;52.138;9.912;2023-06-10T10:38:34;20.60;;;3.78;;
52740;SDS011;38634;52.138;9.912;2023-06-10T10:41:19;12.27;;;2.30;;
52740;SDS011;38634;52.138;9.912;2023-06-10T10:44:05;16.67;;;3.22;;
52740;SDS011;38634;52.138;9.912;2023-06-10T10:46:51;17.70;;;4.30;;
52740;SDS011;38634;52.138;9.912;2023-06-10T10:49:38;13.30;;;2.70;;
52740;SDS011;38634;52.138;9.912;2023-06-10T10:52:28;16.17;;;3.47;;
52740;SDS011;38634;52.138;9.912;2023-06-10T10:59:05;16.75;;;3.25;;
52740;SDS011;38634;52.138;9.912;2023-06-10T11:01:51;16.23;;;3.33;;
52740;SDS011;38634;52.138;9.912;2023-06-10T11:04:36;15.85;;;3.05;;
52740;SDS011;38634;52.138;9.912;2023-06-10T11:07:20;14.68;;;2.88;;
52740;SDS011;38634;52.138;9.912;2023-06-10T11:10:07;17.05;;;3.45;;
52740;SDS011;38634;52.138;9.912;2023-06-10T11:12:55;16.17;;;3.20;;
52740;SDS011;38634;52.138;9.912;2023-06-10T11:15:44;18.50;;;3.45;;
52740;SDS011;38634;52.138;9.912;2023-06-10T11:18:34;22.05;;;3.65;;
52740;SDS011;38634;52.138;9.912;2023-06-10T11:21:26;19.42;;;3.28;;
52740;SDS011;38634;52.138;9.912;2023-06-10T11:24:14;13.98;;;3.08;;
52740;SDS011;38634;52.138;9.912;2023-06-10T11:32:51;14.38;;;2.75;;
52740;SDS011;38634;52.138;9.912;2023-06-10T11:35:36;18.58;;;3.17;;
52740;SDS011;38634;52.138;9.912;2023-06-10T11:38:21;16.77;;;3.47;;
52740;SDS011;38634;52.138;9.912;2023-06-10T11:41:06;17.98;;;3.28;;
52740;SDS011;38634;52.138;9.912;2023-06-10T11:43:50;17.83;;;3.25;;
52740;SDS011;38634;52.138;9.912;2023-06-10T11:46:36;22.75;;;5.15;;
52740;SDS011;38634;52.138;9.912;2023-06-10T11:49:21;18.58;;;3.38;;
52740;SDS011;38634;52.138;9.912;2023-06-10T11:52:06;20.20;;;3.67;;
52740;SDS011;38634;52.138;9.912;2023-06-10T11:54:54;22.92;;;3.75;;
52740;SDS011;38634;52.138;9.912;2023-06-10T11:57:39;21.02;;;4.10;;
52740;SDS011;38634;52.138;9.912;2023-06-10T12:00:24;19.45;;;3.63;;
52740;SDS011;38634;52.138;9.912;2023-06-10T12:03:08;19.05;;;3.50;;
52740;SDS011;38634;52.138;9.912;2023-06-10T12:06:00;17.45;;;3.10;;
52740;SDS011;38634;52.138;9.912;2023-06-10T12:08:47;20.50;;;3.70;;
52740;SDS011;38634;52.138;9.912;2023-06-10T12:11:33;18.02;;;2.95;;
52740;SDS011;38634;52.138;9.912;2023-06-10T12:17:39;16.27;;;2.88;;
52740;SDS011;38634;52.138;9.912;2023-06-10T12:20:25;18.40;;;3.08;;
52740;SDS011;38634;52.138;9.912;2023-06-10T12:23:12;17.33;;;3.35;;
52740;SDS011;38634;52.138;9.912;2023-06-10T12:25:57;17.58;;;2.90;;
52740;SDS011;38634;52.138;9.912;2023-06-10T12:28:50;18.67;;;3.13;;
52740;SDS011;38634;52.138;9.912;2023-06-10T12:31:51;19.50;;;3.65;;
52740;SDS011;38634;52.138;9.912;2023-06-10T12:34:39;16.83;;;3.00;;
52740;SDS011;38634;52.138;9.912;2023-06-10T12:37:24;13.85;;;2.63;;
52740;SDS011;38634;52.138;9.912;2023-06-10T12:40:08;16.45;;;2.83;;
52740;SDS011;38634;52.138;9.912;2023-06-10T12:42:54;17.25;;;3.20;;
52740;SDS011;38634;52.138;9.912;2023-06-10T12:45:42;20.15;;;3.35;;
52740;SDS011;38634;52.138;9.912;2023-06-10T12:48:28;11.38;;;2.00;;
52740;SDS011;38634;52.138;9.912;2023-06-10T12:51:13;14.75;;;2.75;;
52740;SDS011;38634;52.138;9.912;2023-06-10T12:53:57;13.52;;;3.00;;
52740;SDS011;38634;52.138;9.912;2023-06-10T12:56:42;25.80;;;5.97;;
52740;SDS011;38634;52.138;9.912;2023-06-10T12:59:27;16.83;;;3.03;;
52740;SDS011;38634;52.138;9.912;2023-06-10T13:02:12;14.80;;;3.25;;
52740;SDS011;38634;52.138;9.912;2023-06-10T13:04:56;15.07;;;2.88;;
52740;SDS011;38634;52.138;9.912;2023-06-10T13:07:41;16.08;;;2.80;;
52740;SDS011;38634;52.138;9.912;2023-06-10T13:10:28;11.52;;;2.55;;
52740;SDS011;38634;52.138;9.912;2023-06-10T13:13:12;17.00;;;3.10;;
52740;SDS011;38634;52.138;9.912;2023-06-10T13:15:57;19.58;;;2.85;;
52740;SDS011;38634;52.138;9.912;2023-06-10T13:18:42;16.25;;;3.40;;
52740;SDS011;38634;52.138;9.912;2023-06-10T13:21:27;15.07;;;3.00;;
52740;SDS011;38634;52.138;9.912;2023-06-10T13:24:11;18.02;;;2.83;;
52740;SDS011;38634;52.138;9.912;2023-06-10T13:26:56;18.70;;;3.92;;
52740;SDS011;38634;52.138;9.912;2023-06-10T13:29:41;16.13;;;3.60;;
52740;SDS011;38634;52.138;9.912;2023-06-10T13:32:26;19.15;;;3.05;;
52740;SDS011;38634;52.138;9.912;2023-06-10T13:35:10;14.30;;;3.47;;
52740;SDS011;38634;52.138;9.912;2023-06-10T13:37:55;18.15;;;3.35;;
52740;SDS011;38634;52.138;9.912;2023-06-10T13:40:40;11.45;;;2.38;;
52740;SDS011;38634;52.138;9.912;2023-06-10T13:43:24;18.55;;;3.50;;
52740;SDS011;38634;52.138;9.912;2023-06-10T13:46:09;14.38;;;2.65;;
52740;SDS011;38634;52.138;9.912;2023-06-10T13:48:53;17.95;;;3.60;;
52740;SDS011;38634;52.138;9.912;2023-06-10T13:51:38;19.67;;;4.38;;
52740;SDS011;38634;52.138;9.912;2023-06-10T13:54:23;14.05;;;2.75;;
52740;SDS011;38634;52.138;9.912;2023-06-10T13:57:07;16.58;;;3.17;;
52740;SDS011;38634;52.138;9.912;2023-06-10T13:59:54;16.73;;;4.00;;
52740;SDS011;38634;52.138;9.912;2023-06-10T14:02:39;16.27;;;3.63;;
52740;SDS011;38634;52.138;9.912;2023-06-10T14:05:24;13.85;;;2.63;;
52740;SDS011;38634;52.138;9.912;2023-06-10T14:08:08;17.25;;;3.45;;
52740;SDS011;38634;52.138;9.912;2023-06-10T14:10:53;16.77;;;2.83;;
52740;SDS011;38634;52.138;9.912;2023-06-10T14:13:37;18.70;;;3.17;;
52740;SDS011;38634;52.138;9.912;2023-06-10T14:16:23;17.48;;;3.17;;
52740;SDS011;38634;52.138;9.912;2023-06-10T14:19:08;16.92;;;3.30;;
52740;SDS011;38634;52.138;9.912;2023-06-10T14:21:52;17.75;;;3.10;;
52740;SDS011;38634;52.138;9.912;2023-06-10T14:24:38;18.33;;;3.72;;
52740;SDS011;38634;52.138;9.912;2023-06-10T14:27:23;14.15;;;3.22;;
52740;SDS011;38634;52.138;9.912;2023-06-10T14:30:07;17.77;;;3.58;;
52740;SDS011;38634;52.138;9.912;2023-06-10T14:32:52;17.65;;;3.03;;
52740;SDS011;38634;52.138;9.912;2023-06-10T14:35:40;18.38;;;3.72;;
52740;SDS011;38634;52.138;9.912;2023-06-10T14:38:26;11.90;;;2.45;;
52740;SDS011;38634;52.138;9.912;2023-06-10T14:41:11;15.82;;;2.90;;
52740;SDS011;38634;52.138;9.912;2023-06-10T14:43:58;18.30;;;3.72;;
52740;SDS011;38634;52.138;9.912;2023-06-10T14:46:43;24.45;;;5.93;;
52740;SDS011;38634;52.138;9.912;2023-06-10T14:49:27;17.17;;;2.80;;
52740;SDS011;38634;52.138;9.912;2023-06-10T14:52:12;15.82;;;2.92;;
52740;SDS011;38634;52.138;9.912;2023-06-10T14:55:12;11.52;;;2.40;;
52740;SDS011;38634;52.138;9.912;2023-06-10T14:58:09;15.27;;;2.95;;
52740;SDS011;38634;52.138;9.912;2023-06-10T15:00:54;20.25;;;4.47;;
52740;SDS011;38634;52.138;9.912;2023-06-10T15:03:39;15.52;;;2.95;;
52740;SDS011;38634;52.138;9.912;2023-06-10T15:06:29;22.33;;;4.97;;
52740;SDS011;38634;52.138;9.912;2023-06-10T15:09:14;21.33;;;4.32;;
52740;SDS011;38634;52.138;9.912;2023-06-10T15:11:59;17.27;;;3.05;;
52740;SDS011;38634;52.138;9.912;2023-06-10T15:14:44;14.10;;;2.28;;
52740;SDS011;38634;52.138;9.912;2023-06-10T15:17:29;18.63;;;3.17;;
52740;SDS011;38634;52.138;9.912;2023-06-10T15:20:13;13.00;;;2.67;;
52740;SDS011;38634;52.138;9.912;2023-06-10T15:22:59;14.90;;;2.45;;
52740;SDS011;38634;52.138;9.912;2023-06-10T15:25:44;13.52;;;3.03;;
52740;SDS011;38634;52.138;9.912;2023-06-10T15:28:30;13.50;;;2.50;;
52740;SDS011;38634;52.138;9.912;2023-06-10T15:31:14;19.13;;;3.50;;
52740;SDS011;38634;52.138;9.912;2023-06-10T15:33:59;22.27;;;4.03;;
52740;SDS011;38634;52.138;9.912;2023-06-10T15:36:44;21.35;;;5.20;;
52740;SDS011;38634;52.138;9.912;2023-06-10T15:39:28;19.58;;;3.75;;
52740;SDS011;38634;52.138;9.912;2023-06-10T15:42:17;17.95;;;3.35;;
52740;SDS011;38634;52.138;9.912;2023-06-10T15:45:01;16.35;;;3.05;;
52740;SDS011;38634;52.138;9.912;2023-06-10T15:47:45;17.27;;;3.20;;
52740;SDS011;38634;52.138;9.912;2023-06-10T15:50:30;18.23;;;3.08;;
52740;SDS011;38634;52.138;9.912;2023-06-10T15:53:15;17.90;;;3.20;;
52740;SDS011;38634;52.138;9.912;2023-06-10T15:56:00;18.95;;;3.35;;
52740;SDS011;38634;52.138;9.912;2023-06-10T15:58:44;18.98;;;3.15;;
52740;SDS011;38634;52.138;9.912;2023-06-10T16:01:29;20.80;;;3.53;;
52740;SDS011;38634;52.138;9.912;2023-06-10T16:04:14;17.30;;;3.80;;
52740;SDS011;38634;52.138;9.912;2023-06-10T16:06:58;18.67;;;3.38;;
52740;SDS011;38634;52.138;9.912;2023-06-10T16:09:43;18.63;;;2.97;;
52740;SDS011;38634;52.138;9.912;2023-06-10T16:12:30;18.98;;;3.38;;
52740;SDS011;38634;52.138;9.912;2023-06-10T16:15:15;14.48;;;2.60;;
52740;SDS011;38634;52.138;9.912;2023-06-10T16:18:00;16.30;;;2.78;;
52740;SDS011;38634;52.138;9.912;2023-06-10T16:20:44;15.63;;;2.90;;
52740;SDS011;38634;52.138;9.912;2023-06-10T16:23:29;19.30;;;3.60;;
52740;SDS011;38634;52.138;9.912;2023-06-10T16:26:16;18.33;;;3.38;;
52740;SDS011;38634;52.138;9.912;2023-06-10T16:29:01;17.17;;;3.33;;
52740;SDS011;38634;52.138;9.912;2023-06-10T16:31:46;20.88;;;3.60;;
52740;SDS011;38634;52.138;9.912;2023-06-10T16:34:31;18.10;;;3.35;;
52740;SDS011;38634;52.138;9.912;2023-06-10T16:37:16;17.00;;;2.67;;
52740;SDS011;38634;52.138;9.912;2023-06-10T16:40:01;14.23;;;2.33;;
52740;SDS011;38634;52.138;9.912;2023-06-10T16:42:48;19.40;;;3.78;;
52740;SDS011;38634;52.138;9.912;2023-06-10T16:45:36;17.48;;;4.10;;
52740;SDS011;38634;52.138;9.912;2023-06-10T16:48:20;17.40;;;2.97;;
52740;SDS011;38634;52.138;9.912;2023-06-10T16:51:05;17.02;;;3.47;;
52740;SDS011;38634;52.138;9.912;2023-06-10T16:53:49;8.18;;;2.70;;
52740;SDS011;38634;52.138;9.912;2023-06-10T16:56:34;10.65;;;4.07;;
52740;SDS011;38634;52.138;9.912;2023-06-10T16:59:19;9.38;;;3.03;;
52740;SDS011;38634;52.138;9.912;2023-06-10T17:02:03;5.90;;;2.42;;
52740;SDS011;38634;52.138;9.912;2023-06-10T17:04:51;7.60;;;2.60;;
52740;SDS011;38634;52.138;9.912;2023-06-10T17:07:39;12.00;;;3.45;;
52740;SDS011;38634;52.138;9.912;2023-06-10T17:10:23;9.13;;;2.97;;
52740;SDS011;38634;52.138;9.912;2023-06-10T17:13:08;8.57;;;2.88;;
52740;SDS011;38634;52.138;9.912;2023-06-10T17:15:53;8.57;;;3.22;;
52740;SDS011;38634;52.138;9.912;2023-06-10T17:18:37;10.60;;;3.75;;
52740;SDS011;38634;52.138;9.912;2023-06-10T17:21:22;8.13;;;3.47;;
52740;SDS011;38634;52.138;9.912;2023-06-10T17:24:06;9.27;;;2.90;;
52740;SDS011;38634;52.138;9.912;2023-06-10T17:26:51;10.10;;;4.05;;
52740;SDS011;38634;52.138;9.912;2023-06-10T17:29:36;6.80;;;2.60;;
52740;SDS011;38634;52.138;9.912;2023-06-10T17:32:22;6.80;;;2.80;;
52740;SDS011;38634;52.138;9.912;2023-06-10T17:35:07;7.15;;;3.40;;
52740;SDS011;38634;52.138;9.912;2023-06-10T17:37:55;7.47;;;3.17;;
52740;SDS011;38634;52.138;9.912;2023-06-10T17:40:40;6.25;;;2.40;;
52740;SDS011;38634;52.138;9.912;2023-06-10T17:43:24;8.88;;;3.35;;
52740;SDS011;38634;52.138;9.912;2023-06-10T17:46:09;9.10;;;3.45;;
52740;SDS011;38634;52.138;9.912;2023-06-10T17:48:54;8.77;;;3.00;;
52740;SDS011;38634;52.138;9.912;2023-06-10T17:51:38;8.18;;;3.38;;
52740;SDS011;38634;52.138;9.912;2023-06-10T17:54:23;6.97;;;3.17;;
52740;SDS011;38634;52.138;9.912;2023-06-10T17:57:10;7.43;;;3.03;;
52740;SDS011;38634;52.138;9.912;2023-06-10T17:59:55;6.72;;;2.53;;
52740;SDS011;38634;52.138;9.912;2023-06-10T18:02:39;11.77;;;2.60;;
52740;SDS011;38634;52.138;9.912;2023-06-10T18:05:24;5.90;;;2.40;;
52740;SDS011;38634;52.138;9.912;2023-06-10T18:08:09;7.30;;;3.15;;
52740;SDS011;38634;52.138;9.912;2023-06-10T18:10:54;9.57;;;3.38;;
52740;SDS011;38634;52.138;9.912;2023-06-10T18:13:38;6.45;;;2.55;;
52740;SDS011;38634;52.138;9.912;2023-06-10T18:16:23;6.25;;;2.35;;
52740;SDS011;38634;52.138;9.912;2023-06-10T18:19:07;4.70;;;1.80;;
52740;SDS011;38634;52.138;9.912;2023-06-10T18:21:52;7.07;;;2.30;;
52740;SDS011;38634;52.138;9.912;2023-06-10T18:24:37;6.40;;;2.30;;
52740;SDS011;38634;52.138;9.912;2023-06-10T18:27:21;6.97;;;2.58;;
52740;SDS011;38634;52.138;9.912;2023-06-10T18:30:06;6.63;;;2.53;;
52740;SDS011;38634;52.138;9.912;2023-06-10T18:32:51;7.70;;;3.30;;
52740;SDS011;38634;52.138;9.912;2023-06-10T18:35:36;6.25;;;2.95;;
52740;SDS011;38634;52.138;9.912;2023-06-10T18:38:22;5.57;;;2.30;;
52740;SDS011;38634;52.138;9.912;2023-06-10T18:41:06;8.05;;;2.95;;
52740;SDS011;38634;52.138;9.912;2023-06-10T18:43:51;5.85;;;2.53;;
52740;SDS011;38634;52.138;9.912;2023-06-10T18:46:36;7.70;;;3.90;;
52740;SDS011;38634;52.138;9.912;2023-06-10T18:49:20;6.75;;;2.63;;
52740;SDS011;38634;52.138;9.912;2023-06-10T18:52:05;6.68;;;2.50;;
52740;SDS011;38634;52.138;9.912;2023-06-10T18:54:50;8.60;;;2.92;;
52740;SDS011;38634;52.138;9.912;2023-06-10T18:57:42;4.90;;;1.98;;
52740;SDS011;38634;52.138;9.912;2023-06-10T19:00:27;7.10;;;2.42;;
52740;SDS011;38634;52.138;9.912;2023-06-10T19:03:11;8.27;;;3.10;;
52740;SDS011;38634;52.138;9.912;2023-06-10T19:05:56;2.67;;;1.52;;
52740;SDS011;38634;52.138;9.912;2023-06-10T19:08:43;6.18;;;2.28;;
52740;SDS011;38634;52.138;9.912;2023-06-10T19:11:28;7.72;;;2.92;;
52740;SDS011;38634;52.138;9.912;2023-06-10T19:14:14;7.70;;;2.95;;
52740;SDS011;38634;52.138;9.912;2023-06-10T19:16:59;5.78;;;2.28;;
52740;SDS011;38634;52.138;9.912;2023-06-10T19:19:44;6.18;;;2.78;;
52740;SDS011;38634;52.138;9.912;2023-06-10T19:22:29;7.85;;;3.22;;
52740;SDS011;38634;52.138;9.912;2023-06-10T19:25:13;4.38;;;2.08;;
52740;SDS011;38634;52.138;9.912;2023-06-10T19:27:58;6.28;;;2.85;;
52740;SDS011;38634;52.138;9.912;2023-06-10T19:30:43;7.05;;;3.20;;
52740;SDS011;38634;52.138;9.912;2023-06-10T19:33:27;7.90;;;3.47;;
52740;SDS011;38634;52.138;9.912;2023-06-10T19:36:12;7.72;;;2.53;;
52740;SDS011;38634;52.138;9.912;2023-06-10T19:38:56;6.85;;;3.13;;
52740;SDS011;38634;52.138;9.912;2023-06-10T19:41:41;8.13;;;3.17;;
52740;SDS011;38634;52.138;9.912;2023-06-10T19:44:29;8.15;;;3.22;;
52740;SDS011;38634;52.138;9.912;2023-06-10T19:47:14;7.07;;;2.83;;
52740;SDS011;38634;52.138;9.912;2023-06-10T19:50:02;6.82;;;2.63;;
52740;SDS011;38634;52.138;9.912;2023-06-10T19:52:47;7.43;;;2.75;;
52740;SDS011;38634;52.138;9.912;2023-06-10T19:55:32;6.72;;;2.63;;
52740;SDS011;38634;52.138;9.912;2023-06-10T19:58:16;5.00;;;2.13;;
52740;SDS011;38634;52.138;9.912;2023-06-10T20:01:01;6.45;;;2.80;;
52740;SDS011;38634;52.138;9.912;2023-06-10T20:03:45;7.07;;;2.80;;
52740;SDS011;38634;52.138;9.912;2023-06-10T20:06:30;6.88;;;2.85;;
52740;SDS011;38634;52.138;9.912;2023-06-10T20:09:15;6.95;;;2.70;;
52740;SDS011;38634;52.138;9.912;2023-06-10T20:12:00;6.90;;;2.30;;
52740;SDS011;38634;52.138;9.912;2023-06-10T20:14:45;5.75;;;2.20;;
52740;SDS011;38634;52.138;9.912;2023-06-10T20:17:30;6.50;;;2.83;;
52740;SDS011;38634;52.138;9.912;2023-06-10T20:20:15;5.78;;;2.53;;
52740;SDS011;38634;52.138;9.912;2023-06-10T20:22:59;4.50;;;1.92;;
52740;SDS011;38634;52.138;9.912;2023-06-10T20:25:44;5.63;;;2.42;;
52740;SDS011;38634;52.138;9.912;2023-06-10T20:28:28;7.85;;;2.70;;
52740;SDS011;38634;52.138;9.912;2023-06-10T20:31:13;5.30;;;2.28;;
52740;SDS011;38634;52.138;9.912;2023-06-10T20:33:58;6.57;;;2.50;;
52740;SDS011;38634;52.138;9.912;2023-06-10T20:36:43;7.10;;;3.30;;
52740;SDS011;38634;52.138;9.912;2023-06-10T20:39:28;7.80;;;3.60;;
52740;SDS011;38634;52.138;9.912;2023-06-10T20:42:12;5.70;;;2.45;;
52740;SDS011;38634;52.138;9.912;2023-06-10T20:44:59;7.90;;;2.80;;
52740;SDS011;38634;52.138;9.912;2023-06-10T20:47:43;9.00;;;3.13;;
52740;SDS011;38634;52.138;9.912;2023-06-10T20:50:28;6.57;;;2.45;;
52740;SDS011;38634;52.138;9.912;2023-06-10T20:53:15;6.68;;;2.50;;
52740;SDS011;38634;52.138;9.912;2023-06-10T20:55:59;7.22;;;2.63;;
52740;SDS011;38634;52.138;9.912;2023-06-10T20:58:44;6.93;;;2.70;;
52740;SDS011;38634;52.138;9.912;2023-06-10T21:01:29;7.50;;;3.00;;
52740;SDS011;38634;52.138;9.912;2023-06-10T21:04:14;8.57;;;3.50;;
52740;SDS011;38634;52.138;9.912;2023-06-10T21:06:58;6.63;;;2.67;;
52740;SDS011;38634;52.138;9.912;2023-06-10T21:09:43;8.48;;;3.35;;
52740;SDS011;38634;52.138;9.912;2023-06-10T21:12:27;8.38;;;2.78;;
52740;SDS011;38634;52.138;9.912;2023-06-10T21:15:14;10.95;;;2.78;;
52740;SDS011;38634;52.138;9.912;2023-06-10T21:17:59;6.57;;;2.85;;
52740;SDS011;38634;52.138;9.912;2023-06-10T21:20:44;6.82;;;2.47;;
52740;SDS011;38634;52.138;9.912;2023-06-10T21:23:28;6.90;;;2.60;;
52740;SDS011;38634;52.138;9.912;2023-06-10T21:26:13;7.30;;;2.63;;
52740;SDS011;38634;52.138;9.912;2023-06-10T21:29:00;8.45;;;2.95;;
52740;SDS011;38634;52.138;9.912;2023-06-10T21:31:46;5.20;;;2.25;;
52740;SDS011;38634;52.138;9.912;2023-06-10T21:34:30;8.13;;;2.97;;
52740;SDS011;38634;52.138;9.912;2023-06-10T21:37:15;6.72;;;2.50;;
52740;SDS011;38634;52.138;9.912;2023-06-10T21:40:00;7.28;;;2.72;;
52740;SDS011;38634;52.138;9.912;2023-06-10T21:42:44;5.25;;;2.15;;
52740;SDS011;38634;52.138;9.912;2023-06-10T21:45:29;7.53;;;2.85;;
52740;SDS011;38634;52.138;9.912;2023-06-10T21:48:14;7.68;;;2.85;;
52740;SDS011;38634;52.138;9.912;2023-06-10T21:50:59;8.43;;;3.25;;
52740;SDS011;38634;52.138;9.912;2023-06-10T21:53:43;3.65;;;2.22;;
52740;SDS011;38634;52.138;9.912;2023-06-10T21:56:28;6.85;;;2.78;;
52740;SDS011;38634;52.138;9.912;2023-06-10T21:59:15;8.57;;;3.33;;
52740;SDS011;38634;52.138;9.912;2023-06-10T22:02:01;7.28;;;2.50;;
52740;SDS011;38634;52.138;9.912;2023-06-10T22:04:46;7.55;;;3.03;;
52740;SDS011;38634;52.138;9.912;2023-06-10T22:07:30;7.47;;;3.28;;
52740;SDS011;38634;52.138;9.912;2023-06-10T22:10:15;7.72;;;3.38;;
52740;SDS011;38634;52.138;9.912;2023-06-10T22:13:02;7.07;;;2.63;;
52740;SDS011;38634;52.138;9.912;2023-06-10T22:15:47;6.63;;;2.40;;
52740;SDS011;38634;52.138;9.912;2023-06-10T22:18:32;7.72;;;3.08;;
52740;SDS011;38634;52.138;9.912;2023-06-10T22:21:16;8.82;;;3.38;;
52740;SDS011;38634;52.138;9.912;2023-06-10T22:24:01;5.85;;;2.45;;
52740;SDS011;38634;52.138;9.912;2023-06-10T22:26:46;8.43;;;3.72;;
52740;SDS011;38634;52.138;9.912;2023-06-10T22:29:31;6.10;;;2.33;;
52740;SDS011;38634;52.138;9.912;2023-06-10T22:32:16;6.88;;;2.58;;
52740;SDS011;38634;52.138;9.912;2023-06-10T22:35:00;6.00;;;2.25;;
52740;SDS011;38634;52.138;9.912;2023-06-10T22:37:49;6.00;;;2.20;;
52740;SDS011;38634;52.138;9.912;2023-06-10T22:40:34;4.45;;;2.00;;
52740;SDS011;38634;52.138;9.912;2023-06-10T22:43:18;6.90;;;2.63;;
52740;SDS011;38634;52.138;9.912;2023-06-10T22:46:03;4.63;;;1.90;;
52740;SDS011;38634;52.138;9.912;2023-06-10T22:48:48;6.70;;;2.50;;
52740;SDS011;38634;52.138;9.912;2023-06-10T22:51:32;6.50;;;2.63;;
52740;SDS011;38634;52.138;9.912;2023-06-10T22:54:17;7.57;;;2.45;;
52740;SDS011;38634;52.138;9.912;2023-06-10T22:57:02;7.50;;;2.67;;
52740;SDS011;38634;52.138;9.912;2023-06-10T22:59:46;7.55;;;2.75;;
52740;SDS011;38634;52.138;9.912;2023-06-10T23:02:34;5.00;;;1.88;;
52740;SDS011;38634;52.138;9.912;2023-06-10T23:05:22;7.50;;;2.55;;
52740;SDS011;38634;52.138;9.912;2023-06-10T23:08:06;5.10;;;2.40;;
52740;SDS011;38634;52.138;9.912;2023-06-10T23:10:51;6.07;;;2.30;;
52740;SDS011;38634;52.138;9.912;2023-06-10T23:13:38;7.60;;;2.83;;
52740;SDS011;38634;52.138;9.912;2023-06-10T23:16:23;9.38;;;3.38;;
52740;SDS011;38634;52.138;9.912;2023-06-10T23:19:09;6.80;;;2.65;;
52740;SDS011;38634;52.138;9.912;2023-06-10T23:21:55;7.75;;;2.70;;
52740;SDS011;38634;52.138;9.912;2023-06-10T23:24:43;7.10;;;2.50;;
52740;SDS011;38634;52.138;9.912;2023-06-10T23:27:28;5.68;;;2.70;;
52740;SDS011;38634;52.138;9.912;2023-06-10T23:30:15;7.47;;;2.60;;
52740;SDS011;38634;52.138;9.912;2023-06-10T23:33:00;8.30;;;2.95;;
52740;SDS011;38634;52.138;9.912;2023-06-10T23:35:45;7.20;;;2.80;;
52740;SDS011;38634;52.138;9.912;2023-06-10T23:38:31;7.18;;;2.80;;
52740;SDS011;38634;52.138;9.912;2023-06-10T23:41:15;4.90;;;2.08;;
52740;SDS011;38634;52.138;9.912;2023-06-10T23:44:00;7.40;;;2.80;;
52740;SDS011;38634;52.138;9.912;2023-06-10T23:46:45;8.80;;;4.10;;
52740;SDS011;38634;52.138;9.912;2023-06-10T23:49:30;8.15;;;3.30;;
52740;SDS011;38634;52.138;9.912;2023-06-10T23:52:14;8.73;;;3.33;;
52740;SDS011;38634;52.138;9.912;2023-06-10T23:54:59;9.02;;;3.03;;
52740;SDS011;38634;52.138;9.912;2023-06-10T23:57:44;7.50;;;2.67;;
